createdAt,value
2019-01-03T00:00:35.019Z,-0.28
2019-01-03T00:01:35.006Z,-0.26
2019-01-03T00:02:34.996Z,-0.33
2019-01-03T00:03:34.999Z,-0.29
2019-01-03T00:04:34.978Z,-0.36
2019-01-03T00:05:34.963Z,-0.43
2019-01-03T00:06:34.971Z,-0.39
2019-01-03T00:07:34.943Z,-0.40
2019-01-03T00:08:34.938Z,-0.47
2019-01-03T00:09:34.929Z,-0.57
2019-01-03T00:10:34.910Z,-0.51
2019-01-03T00:11:34.903Z,-0.64
2019-01-03T00:12:34.909Z,-0.58
2019-01-03T00:13:34.881Z,-0.61
2019-01-03T00:14:34.871Z,-0.61
2019-01-03T00:15:34.860Z,-0.72
2019-01-03T00:16:34.852Z,-0.62
2019-01-03T00:17:34.849Z,-0.64
2019-01-03T00:18:34.828Z,-0.70
2019-01-03T00:19:34.819Z,-0.64
2019-01-03T00:20:34.804Z,-0.69
2019-01-03T00:21:34.817Z,-0.70
2019-01-03T00:22:34.783Z,-0.70
2019-01-03T00:23:34.772Z,-0.89
2019-01-03T00:24:34.763Z,-0.78
2019-01-03T00:25:34.755Z,-0.80
2019-01-03T00:26:34.744Z,-0.79
2019-01-03T00:27:34.751Z,-0.85
2019-01-03T00:28:35.970Z,-0.89
2019-01-03T00:29:34.711Z,-0.89
2019-01-03T00:30:34.698Z,-0.89
2019-01-03T00:31:34.691Z,-0.80
2019-01-03T00:32:34.680Z,-0.91
2019-01-03T00:33:34.681Z,-0.82
2019-01-03T00:34:34.660Z,-0.85
2019-01-03T00:35:34.646Z,-0.91
2019-01-03T00:36:34.638Z,-0.86
2019-01-03T00:37:34.641Z,-0.91
2019-01-03T00:38:34.615Z,-0.86
2019-01-03T00:39:34.603Z,-0.98
2019-01-03T00:40:34.595Z,-0.89
2019-01-03T00:41:34.596Z,-0.94
2019-01-03T00:42:34.607Z,-0.86
2019-01-03T00:43:34.561Z,-0.80
2019-01-03T00:44:34.555Z,-0.85
2019-01-03T00:45:34.539Z,-0.94
2019-01-03T00:46:34.531Z,-0.89
2019-01-03T00:47:34.524Z,-0.85
2019-01-03T00:48:34.565Z,-0.89
2019-01-03T00:49:34.500Z,-0.95
2019-01-03T00:50:34.487Z,-0.91
2019-01-03T00:51:34.477Z,-0.97
2019-01-03T00:52:34.480Z,-0.91
2019-01-03T00:53:34.466Z,-0.92
2019-01-03T00:54:34.463Z,-0.86
2019-01-03T00:55:34.448Z,-0.94
2019-01-03T00:56:34.424Z,-1.04
2019-01-03T00:57:34.413Z,-1.04
2019-01-03T00:58:34.403Z,-1.02
2019-01-03T00:59:34.395Z,-0.99
2019-01-03T01:00:34.428Z,-0.97
2019-01-03T01:01:34.371Z,-1.01
2019-01-03T01:02:34.368Z,-0.97
2019-01-03T01:03:34.349Z,-0.98
2019-01-03T01:04:34.342Z,-0.95
2019-01-03T01:05:34.335Z,-1.02
2019-01-03T01:06:34.331Z,-0.99
2019-01-03T01:07:34.312Z,-0.95
2019-01-03T01:08:34.297Z,-1.01
2019-01-03T01:09:34.318Z,-0.99
2019-01-03T01:10:34.277Z,-0.92
2019-01-03T01:11:34.266Z,-0.95
2019-01-03T01:12:34.256Z,-1.01
2019-01-03T01:13:34.246Z,-0.98
2019-01-03T01:14:34.239Z,-0.99
2019-01-03T01:15:34.238Z,-1.01
2019-01-03T01:16:34.213Z,-1.01
2019-01-03T01:17:34.206Z,-0.89
2019-01-03T01:18:34.191Z,-0.95
2019-01-03T01:19:34.185Z,-0.86
2019-01-03T01:20:34.191Z,-0.86
2019-01-03T01:21:34.164Z,-0.91
2019-01-03T01:22:34.152Z,-0.86
2019-01-03T01:23:34.139Z,-0.95
2019-01-03T01:24:34.131Z,-0.92
2019-01-03T01:25:34.130Z,-0.86
2019-01-03T01:26:34.108Z,-0.92
2019-01-03T01:27:34.098Z,-0.95
2019-01-03T01:28:34.088Z,-0.86
2019-01-03T01:29:34.076Z,-0.97
2019-01-03T01:30:34.080Z,-0.95
2019-01-03T01:31:34.058Z,-0.98
2019-01-03T01:32:34.044Z,-0.99
2019-01-03T01:33:34.035Z,-1.02
2019-01-03T01:34:34.040Z,-0.98
2019-01-03T01:35:34.015Z,-0.98
2019-01-03T01:36:34.019Z,-0.95
2019-01-03T01:37:33.992Z,-1.02
2019-01-03T01:38:33.981Z,-0.89
2019-01-03T01:39:33.973Z,-0.97
2019-01-03T01:40:33.960Z,-0.95
2019-01-03T01:41:33.966Z,-0.89
2019-01-03T01:42:33.940Z,-0.91
2019-01-03T01:43:33.931Z,-0.91
2019-01-03T01:44:33.930Z,-0.92
2019-01-03T01:45:33.907Z,-0.89
2019-01-03T01:46:33.937Z,-0.94
2019-01-03T01:47:33.887Z,-0.80
2019-01-03T01:48:33.875Z,-0.80
2019-01-03T01:49:33.864Z,-0.85
2019-01-03T01:50:33.861Z,-0.85
2019-01-03T01:51:33.846Z,-0.83
2019-01-03T01:52:33.853Z,-0.73
2019-01-03T01:53:33.825Z,-0.85
2019-01-03T01:54:33.810Z,-0.79
2019-01-03T01:55:33.817Z,-0.64
2019-01-03T01:56:33.790Z,-0.64
2019-01-03T01:57:33.782Z,-0.69
2019-01-03T01:58:33.787Z,-0.62
2019-01-03T01:59:33.759Z,-0.73
2019-01-03T02:00:33.748Z,-0.65
2019-01-03T02:01:33.737Z,-0.64
2019-01-03T02:02:33.727Z,-0.73
2019-01-03T02:03:33.718Z,-0.58
2019-01-03T02:04:33.718Z,-0.64
2019-01-03T02:05:33.697Z,-0.61
2019-01-03T02:06:33.683Z,-0.57
2019-01-03T02:07:33.675Z,-0.62
2019-01-03T02:08:33.661Z,-0.61
2019-01-03T02:09:33.678Z,-0.55
2019-01-03T02:10:33.643Z,-0.62
2019-01-03T02:11:33.629Z,-0.47
2019-01-03T02:12:33.620Z,-0.47
2019-01-03T02:13:33.618Z,-0.42
2019-01-03T02:14:33.608Z,-0.52
2019-01-03T02:15:33.605Z,-0.43
2019-01-03T02:16:33.581Z,-0.42
2019-01-03T02:17:33.566Z,-0.46
2019-01-03T02:18:33.557Z,-0.43
2019-01-03T02:19:33.548Z,-0.40
2019-01-03T02:20:33.558Z,-0.37
2019-01-03T02:21:33.550Z,-0.40
2019-01-03T02:22:33.515Z,-0.43
2019-01-03T02:23:33.505Z,-0.42
2019-01-03T02:24:33.495Z,-0.39
2019-01-03T02:25:33.485Z,-0.40
2019-01-03T02:26:33.469Z,-0.36
2019-01-03T02:27:33.476Z,-0.33
2019-01-03T02:28:33.450Z,-0.31
2019-01-03T02:29:33.438Z,-0.31
2019-01-03T02:30:33.427Z,-0.33
2019-01-03T02:31:33.418Z,-0.29
2019-01-03T02:32:33.436Z,-0.33
2019-01-03T02:33:33.402Z,-0.34
2019-01-03T02:34:33.394Z,-0.29
2019-01-03T02:35:33.375Z,-0.29
2019-01-03T02:36:33.378Z,-0.34
2019-01-03T02:37:33.357Z,-0.34
2019-01-03T02:38:33.355Z,-0.40
2019-01-03T02:39:33.333Z,-0.33
2019-01-03T02:40:33.323Z,-0.33
2019-01-03T02:41:33.313Z,-0.25
2019-01-03T02:42:33.319Z,-0.25
2019-01-03T02:43:33.290Z,-0.33
2019-01-03T02:44:33.283Z,-0.33
2019-01-03T02:45:33.268Z,-0.33
2019-01-03T02:46:33.274Z,-0.34
2019-01-03T02:47:33.247Z,-0.34
2019-01-03T02:48:33.236Z,-0.18
2019-01-03T02:49:33.227Z,-0.22
2019-01-03T02:50:33.232Z,-0.18
2019-01-03T02:51:33.207Z,-0.19
2019-01-03T02:52:33.192Z,-0.21
2019-01-03T02:53:33.182Z,-0.22
2019-01-03T02:54:33.174Z,-0.14
2019-01-03T02:55:33.181Z,-0.16
2019-01-03T02:56:33.154Z,-0.11
2019-01-03T02:57:33.149Z,-0.18
2019-01-03T02:58:33.130Z,-0.18
2019-01-03T02:59:33.122Z,-0.08
2019-01-03T03:00:33.110Z,-0.16
2019-01-03T03:01:33.116Z,-0.11
2019-01-03T03:02:33.091Z,-0.10
2019-01-03T03:03:33.080Z,-0.10
2019-01-03T03:04:33.074Z,-0.10
2019-01-03T03:05:33.056Z,-0.08
2019-01-03T03:06:33.061Z,-0.03
2019-01-03T03:07:33.034Z,-0.08
2019-01-03T03:08:33.026Z,-0.07
2019-01-03T03:09:33.015Z,-0.01
2019-01-03T03:10:33.020Z,-0.03
2019-01-03T03:11:33.006Z,0.00
2019-01-03T03:12:32.983Z,-0.08
2019-01-03T03:13:32.971Z,-0.03
2019-01-03T03:14:32.959Z,-0.04
2019-01-03T03:15:32.952Z,-0.04
2019-01-03T03:16:32.954Z,-0.03
2019-01-03T03:17:32.934Z,-0.07
2019-01-03T03:18:32.928Z,-0.08
2019-01-03T03:19:32.906Z,-0.01
2019-01-03T03:20:32.900Z,-0.07
2019-01-03T03:21:32.885Z,-0.05
2019-01-03T03:22:32.877Z,-0.11
2019-01-03T03:23:32.877Z,-0.14
2019-01-03T03:24:32.856Z,-0.16
2019-01-03T03:25:32.842Z,-0.16
2019-01-03T03:26:32.830Z,-0.08
2019-01-03T03:27:32.831Z,-0.18
2019-01-03T03:28:32.814Z,-0.10
2019-01-03T03:29:32.801Z,-0.08
2019-01-03T03:30:32.793Z,-0.10
2019-01-03T03:31:32.782Z,-0.08
2019-01-03T03:32:32.794Z,-0.10
2019-01-03T03:33:32.758Z,-0.03
2019-01-03T03:34:32.746Z,-0.01
2019-01-03T03:35:32.739Z,-0.05
2019-01-03T03:36:32.725Z,-0.01
2019-01-03T03:37:32.716Z,-0.05
2019-01-03T03:38:32.717Z,-0.08
2019-01-03T03:39:32.696Z,-0.01
2019-01-03T03:40:32.732Z,-0.03
2019-01-03T03:41:32.673Z,-0.03
2019-01-03T03:42:32.664Z,-0.05
2019-01-03T03:43:32.671Z,-0.05
2019-01-03T03:44:32.648Z,-0.03
2019-01-03T03:45:32.631Z,0.02
2019-01-03T03:46:32.617Z,0.11
2019-01-03T03:47:32.609Z,-0.05
2019-01-03T03:48:32.599Z,-0.04
2019-01-03T03:49:32.615Z,-0.07
2019-01-03T03:50:32.577Z,-0.07
2019-01-03T03:51:32.566Z,-0.04
2019-01-03T03:52:32.555Z,-0.10
2019-01-03T03:53:32.547Z,-0.03
2019-01-03T03:54:32.547Z,-0.04
2019-01-03T03:55:32.520Z,-0.04
2019-01-03T03:56:32.510Z,-0.01
2019-01-03T03:57:32.505Z,-0.10
2019-01-03T03:58:32.489Z,-0.04
2019-01-03T03:59:32.493Z,-0.10
2019-01-03T04:00:32.469Z,-0.07
2019-01-03T04:01:32.460Z,0.04
2019-01-03T04:02:32.449Z,0.04
2019-01-03T04:03:32.435Z,0.03
2019-01-03T04:04:32.440Z,0.07
2019-01-03T04:05:32.416Z,0.03
2019-01-03T04:06:32.405Z,0.11
2019-01-03T04:07:32.408Z,0.04
2019-01-03T04:08:32.385Z,0.10
2019-01-03T04:09:32.370Z,0.10
2019-01-03T04:10:32.361Z,0.10
2019-01-03T04:11:32.350Z,0.08
2019-01-03T04:12:32.354Z,0.07
2019-01-03T04:13:32.329Z,0.02
2019-01-03T04:14:32.336Z,0.04
2019-01-03T04:15:32.310Z,0.07
2019-01-03T04:16:32.313Z,0.08
2019-01-03T04:17:32.286Z,0.03
2019-01-03T04:18:32.278Z,0.03
2019-01-03T04:19:32.282Z,0.07
2019-01-03T04:20:32.255Z,0.04
2019-01-03T04:21:32.246Z,0.03
2019-01-03T04:22:32.261Z,-0.03
2019-01-03T04:23:32.229Z,0.04
2019-01-03T04:24:32.209Z,0.04
2019-01-03T04:25:32.205Z,0.00
2019-01-03T04:26:32.192Z,0.00
2019-01-03T04:27:32.186Z,0.08
2019-01-03T04:28:32.183Z,0.08
2019-01-03T04:29:32.162Z,0.10
2019-01-03T04:30:32.152Z,-0.01
2019-01-03T04:31:32.137Z,0.04
2019-01-03T04:32:32.129Z,0.00
2019-01-03T04:33:32.130Z,0.03
2019-01-03T04:34:32.106Z,0.02
2019-01-03T04:35:32.111Z,-0.01
2019-01-03T04:36:32.136Z,0.10
2019-01-03T04:37:32.072Z,0.07
2019-01-03T04:38:32.074Z,0.10
2019-01-03T04:39:32.053Z,0.08
2019-01-03T04:40:32.053Z,0.04
2019-01-03T04:41:32.030Z,0.11
2019-01-03T04:42:32.021Z,0.03
2019-01-03T04:43:32.007Z,0.08
2019-01-03T04:44:32.001Z,0.08
2019-01-03T04:45:31.998Z,0.14
2019-01-03T04:46:31.984Z,0.07
2019-01-03T04:47:31.973Z,0.03
2019-01-03T04:48:31.957Z,0.10
2019-01-03T04:49:31.945Z,0.04
2019-01-03T04:50:31.953Z,0.18
2019-01-03T04:51:31.925Z,0.20
2019-01-03T04:52:31.912Z,0.08
2019-01-03T04:53:31.899Z,0.13
2019-01-03T04:54:31.893Z,0.20
2019-01-03T04:55:31.918Z,0.21
2019-01-03T04:56:31.916Z,0.17
2019-01-03T04:57:31.859Z,0.15
2019-01-03T04:58:31.848Z,0.23
2019-01-03T04:59:31.836Z,0.20
2019-01-03T05:00:31.830Z,0.17
2019-01-03T05:01:31.828Z,0.18
2019-01-03T05:02:31.807Z,0.15
2019-01-03T05:03:31.799Z,0.17
2019-01-03T05:04:31.782Z,0.20
2019-01-03T05:05:31.773Z,0.20
2019-01-03T05:06:31.795Z,0.17
2019-01-03T05:07:31.752Z,0.20
2019-01-03T05:08:31.742Z,0.14
2019-01-03T05:09:31.731Z,0.08
2019-01-03T05:10:31.718Z,0.17
2019-01-03T05:11:31.708Z,0.15
2019-01-03T05:12:31.754Z,0.18
2019-01-03T05:13:31.687Z,0.10
2019-01-03T05:14:31.676Z,0.10
2019-01-03T05:15:31.664Z,0.08
2019-01-03T05:16:31.654Z,0.20
2019-01-03T05:17:31.644Z,0.08
2019-01-03T05:18:32.056Z,0.04
2019-01-03T05:19:31.623Z,0.18
2019-01-03T05:20:31.613Z,0.21
2019-01-03T05:21:31.603Z,0.18
2019-01-03T05:22:31.592Z,0.15
2019-01-03T05:23:31.599Z,0.18
2019-01-03T05:24:31.582Z,0.17
2019-01-03T05:25:31.557Z,0.14
2019-01-03T05:26:31.543Z,0.18
2019-01-03T05:27:31.544Z,0.18
2019-01-03T05:28:31.527Z,0.17
2019-01-03T05:29:31.545Z,0.15
2019-01-03T05:30:31.510Z,0.18
2019-01-03T05:31:31.496Z,0.10
2019-01-03T05:32:31.496Z,0.17
2019-01-03T05:33:31.474Z,0.20
2019-01-03T05:34:31.464Z,0.28
2019-01-03T05:35:31.469Z,0.20
2019-01-03T05:36:31.466Z,0.20
2019-01-03T05:37:31.441Z,0.13
2019-01-03T05:38:31.418Z,0.17
2019-01-03T05:39:31.437Z,0.21
2019-01-03T05:40:31.397Z,0.14
2019-01-03T05:41:31.391Z,0.24
2019-01-03T05:42:31.382Z,0.18
2019-01-03T05:43:31.385Z,0.29
2019-01-03T05:44:31.358Z,0.15
2019-01-03T05:45:31.356Z,0.31
2019-01-03T05:46:31.332Z,0.24
2019-01-03T05:47:31.323Z,0.26
2019-01-03T05:48:31.312Z,0.29
2019-01-03T05:49:31.302Z,0.29
2019-01-03T05:50:31.326Z,0.26
2019-01-03T05:51:31.278Z,0.26
2019-01-03T05:52:31.269Z,0.29
2019-01-03T05:53:31.260Z,0.33
2019-01-03T05:54:31.249Z,0.32
2019-01-03T05:55:31.239Z,0.31
2019-01-03T05:56:31.251Z,0.32
2019-01-03T05:57:31.217Z,0.32
2019-01-03T05:58:31.204Z,0.33
2019-01-03T05:59:31.196Z,0.29
2019-01-03T06:00:31.181Z,0.29
2019-01-03T06:01:31.174Z,0.31
2019-01-03T06:02:31.178Z,0.32
2019-01-03T06:03:31.149Z,0.32
2019-01-03T06:04:31.142Z,0.33
2019-01-03T06:05:31.133Z,0.29
2019-01-03T06:06:31.132Z,0.23
2019-01-03T06:07:31.128Z,0.32
2019-01-03T06:08:31.099Z,0.33
2019-01-03T06:09:31.087Z,0.28
2019-01-03T06:10:31.076Z,0.24
2019-01-03T06:11:31.070Z,0.24
2019-01-03T06:12:31.061Z,0.26
2019-01-03T06:13:31.060Z,0.26
2019-01-03T06:14:31.038Z,0.23
2019-01-03T06:15:31.023Z,0.23
2019-01-03T06:16:31.011Z,0.33
2019-01-03T06:17:31.011Z,0.35
2019-01-03T06:18:30.992Z,0.28
2019-01-03T06:19:30.983Z,0.35
2019-01-03T06:20:30.968Z,0.33
2019-01-03T06:21:30.957Z,0.33
2019-01-03T06:22:30.968Z,0.38
2019-01-03T06:23:30.937Z,0.42
2019-01-03T06:24:30.931Z,0.33
2019-01-03T06:25:30.918Z,0.33
2019-01-03T06:26:30.904Z,0.46
2019-01-03T06:27:30.893Z,0.42
2019-01-03T06:28:30.904Z,0.42
2019-01-03T06:29:30.875Z,0.39
2019-01-03T06:30:30.863Z,0.36
2019-01-03T06:31:30.855Z,0.38
2019-01-03T06:32:30.839Z,0.41
2019-01-03T06:33:30.848Z,0.42
2019-01-03T06:34:30.819Z,0.47
2019-01-03T06:35:30.807Z,0.42
2019-01-03T06:36:36.142Z,0.50
2019-01-03T06:37:31.787Z,0.49
2019-01-03T06:38:30.780Z,0.47
2019-01-03T06:39:30.780Z,0.38
2019-01-03T06:40:30.756Z,0.38
2019-01-03T06:41:30.768Z,0.38
2019-01-03T06:42:30.737Z,0.39
2019-01-03T06:43:30.722Z,0.41
2019-01-03T06:44:30.714Z,0.42
2019-01-03T06:45:30.702Z,0.33
2019-01-03T06:46:30.695Z,0.38
2019-01-03T06:47:30.699Z,0.36
2019-01-03T06:48:30.686Z,0.28
2019-01-03T06:49:30.658Z,0.23
2019-01-03T06:50:30.647Z,0.42
2019-01-03T06:51:30.637Z,0.29
2019-01-03T06:52:30.653Z,0.36
2019-01-03T06:53:30.620Z,0.41
2019-01-03T06:54:30.609Z,0.38
2019-01-03T06:55:30.598Z,0.42
2019-01-03T06:56:30.583Z,0.33
2019-01-03T06:57:30.578Z,0.36
2019-01-03T06:58:30.576Z,0.29
2019-01-03T06:59:30.551Z,0.39
2019-01-03T07:00:30.542Z,0.42
2019-01-03T07:01:30.544Z,0.36
2019-01-03T07:02:30.539Z,0.33
2019-01-03T07:03:30.509Z,0.29
2019-01-03T07:04:30.500Z,0.42
2019-01-03T07:05:30.491Z,0.33
2019-01-03T07:06:30.510Z,0.38
2019-01-03T07:07:30.466Z,0.35
2019-01-03T07:08:30.456Z,0.38
2019-01-03T07:09:30.446Z,0.42
2019-01-03T07:10:30.434Z,0.49
2019-01-03T07:11:30.425Z,0.44
2019-01-03T07:12:30.435Z,0.46
2019-01-03T07:13:30.404Z,0.47
2019-01-03T07:14:30.394Z,0.41
2019-01-03T07:15:30.382Z,0.42
2019-01-03T07:16:30.370Z,0.47
2019-01-03T07:17:30.361Z,0.42
2019-01-03T07:18:30.363Z,0.50
2019-01-03T07:19:30.339Z,0.46
2019-01-03T07:20:30.339Z,0.42
2019-01-03T07:21:30.329Z,0.47
2019-01-03T07:22:30.306Z,0.47
2019-01-03T07:23:30.315Z,0.44
2019-01-03T07:24:30.291Z,0.42
2019-01-03T07:25:30.285Z,0.49
2019-01-03T07:26:30.269Z,0.49
2019-01-03T07:27:30.254Z,0.49
2019-01-03T07:28:30.246Z,0.42
2019-01-03T07:29:30.248Z,0.44
2019-01-03T07:30:30.221Z,0.46
2019-01-03T07:31:30.211Z,0.47
2019-01-03T07:32:30.200Z,0.47
2019-01-03T07:33:30.191Z,0.42
2019-01-03T07:34:30.219Z,0.41
2019-01-03T07:35:30.170Z,0.49
2019-01-03T07:36:30.159Z,0.50
2019-01-03T07:37:30.163Z,0.51
2019-01-03T07:38:30.138Z,0.50
2019-01-03T07:39:30.129Z,0.49
2019-01-03T07:40:30.142Z,0.57
2019-01-03T07:41:30.107Z,0.61
2019-01-03T07:42:30.096Z,0.46
2019-01-03T07:43:30.083Z,0.57
2019-01-03T07:44:30.075Z,0.46
2019-01-03T07:45:30.064Z,0.49
2019-01-03T07:46:30.066Z,0.51
2019-01-03T07:47:30.041Z,0.58
2019-01-03T07:48:30.033Z,0.55
2019-01-03T07:49:30.039Z,0.51
2019-01-03T07:50:30.022Z,0.57
2019-01-03T07:51:29.998Z,0.55
2019-01-03T07:52:29.989Z,0.51
2019-01-03T07:53:29.978Z,0.62
2019-01-03T07:54:29.966Z,0.61
2019-01-03T07:55:29.965Z,0.69
2019-01-03T07:56:29.982Z,0.68
2019-01-03T07:57:29.934Z,0.66
2019-01-03T07:58:29.925Z,0.60
2019-01-03T07:59:29.918Z,0.53
2019-01-03T08:00:29.904Z,0.62
2019-01-03T08:01:29.893Z,0.62
2019-01-03T08:02:29.895Z,0.57
2019-01-03T08:03:29.877Z,0.53
2019-01-03T08:04:29.862Z,0.65
2019-01-03T08:05:29.852Z,0.69
2019-01-03T08:06:29.858Z,0.61
2019-01-03T08:07:29.828Z,0.68
2019-01-03T08:08:29.817Z,0.66
2019-01-03T08:09:29.806Z,0.70
2019-01-03T08:10:29.796Z,0.73
2019-01-03T08:11:29.787Z,0.72
2019-01-03T08:12:29.791Z,0.68
2019-01-03T08:13:29.765Z,0.72
2019-01-03T08:14:29.756Z,0.75
2019-01-03T08:15:29.744Z,0.70
2019-01-03T08:16:29.731Z,0.72
2019-01-03T08:17:29.779Z,0.75
2019-01-03T08:18:29.712Z,0.80
2019-01-03T08:19:29.701Z,0.76
2019-01-03T08:20:29.691Z,0.76
2019-01-03T08:21:29.679Z,0.80
2019-01-03T08:22:29.671Z,0.83
2019-01-03T08:23:29.673Z,0.83
2019-01-03T08:24:29.647Z,0.86
2019-01-03T08:25:29.637Z,0.84
2019-01-03T08:26:29.626Z,0.93
2019-01-03T08:27:29.669Z,0.94
2019-01-03T08:28:29.606Z,0.90
2019-01-03T08:29:29.592Z,0.91
2019-01-03T08:30:29.585Z,0.94
2019-01-03T08:31:29.577Z,0.97
2019-01-03T08:32:29.566Z,1.02
2019-01-03T08:33:29.568Z,1.00
2019-01-03T08:34:29.560Z,1.05
2019-01-03T08:35:29.530Z,1.12
2019-01-03T08:36:29.518Z,1.14
2019-01-03T08:37:29.508Z,0.96
2019-01-03T08:38:29.523Z,1.00
2019-01-03T08:39:29.489Z,1.04
2019-01-03T08:40:29.474Z,1.02
2019-01-03T08:41:29.467Z,1.15
2019-01-03T08:42:29.454Z,1.12
2019-01-03T08:43:29.443Z,1.20
2019-01-03T08:44:29.449Z,1.20
2019-01-03T08:45:29.426Z,1.20
2019-01-03T08:46:29.416Z,1.20
2019-01-03T08:47:29.401Z,1.22
2019-01-03T08:48:29.413Z,1.24
2019-01-03T08:49:29.382Z,1.18
2019-01-03T08:50:29.376Z,1.26
2019-01-03T08:51:29.360Z,1.18
2019-01-03T08:52:29.349Z,1.33
2019-01-03T08:53:29.340Z,1.27
2019-01-03T08:54:29.348Z,1.26
2019-01-03T08:55:29.315Z,1.32
2019-01-03T08:56:29.307Z,1.30
2019-01-03T08:57:29.294Z,1.29
2019-01-03T08:58:29.284Z,1.29
2019-01-03T08:59:29.281Z,1.26
2019-01-03T09:00:29.278Z,1.29
2019-01-03T09:01:29.265Z,1.33
2019-01-03T09:02:29.240Z,1.36
2019-01-03T09:03:29.232Z,1.34
2019-01-03T09:04:29.224Z,1.36
2019-01-03T09:05:29.212Z,1.36
2019-01-03T09:06:29.215Z,1.45
2019-01-03T09:07:29.202Z,1.45
2019-01-03T09:08:29.187Z,1.40
2019-01-03T09:09:29.166Z,1.41
2019-01-03T09:10:29.156Z,1.44
2019-01-03T09:11:29.148Z,1.41
2019-01-03T09:12:29.134Z,1.50
2019-01-03T09:13:29.147Z,1.44
2019-01-03T09:14:29.113Z,1.45
2019-01-03T09:15:29.102Z,1.42
2019-01-03T09:16:29.094Z,1.45
2019-01-03T09:17:29.083Z,1.47
2019-01-03T09:18:29.088Z,1.42
2019-01-03T09:19:29.062Z,1.37
2019-01-03T09:20:29.050Z,1.45
2019-01-03T09:21:29.043Z,1.40
2019-01-03T09:22:29.030Z,1.58
2019-01-03T09:23:29.043Z,1.51
2019-01-03T09:24:29.006Z,1.59
2019-01-03T09:25:29.012Z,1.60
2019-01-03T09:26:28.986Z,1.55
2019-01-03T09:27:28.977Z,1.59
2019-01-03T09:28:28.966Z,1.60
2019-01-03T09:29:28.982Z,1.55
2019-01-03T09:30:28.981Z,1.69
2019-01-03T09:31:28.930Z,1.70
2019-01-03T09:32:28.920Z,1.76
2019-01-03T09:33:28.909Z,1.79
2019-01-03T09:34:28.902Z,1.72
2019-01-03T09:35:28.921Z,1.69
2019-01-03T09:36:28.878Z,1.69
2019-01-03T09:37:28.869Z,1.83
2019-01-03T09:38:29.883Z,1.79
2019-01-03T09:39:28.846Z,1.86
2019-01-03T09:40:28.834Z,1.86
2019-01-03T09:41:28.838Z,1.77
2019-01-03T09:42:28.814Z,1.86
2019-01-03T09:43:28.802Z,1.87
2019-01-03T09:44:28.790Z,1.81
2019-01-03T09:45:28.794Z,1.90
2019-01-03T09:46:28.783Z,1.88
2019-01-03T09:47:28.757Z,1.98
2019-01-03T09:48:28.750Z,1.98
2019-01-03T09:49:28.741Z,1.99
2019-01-03T09:50:28.730Z,1.98
2019-01-03T09:51:28.731Z,2.03
2019-01-03T09:52:28.703Z,1.98
2019-01-03T09:53:28.693Z,2.14
2019-01-03T09:54:28.682Z,2.12
2019-01-03T09:55:28.674Z,2.10
2019-01-03T09:56:28.675Z,2.14
2019-01-03T09:57:28.667Z,2.20
2019-01-03T09:58:28.637Z,2.23
2019-01-03T09:59:28.630Z,2.23
2019-01-03T10:00:28.618Z,2.25
2019-01-03T10:01:28.629Z,2.24
2019-01-03T10:02:28.600Z,2.31
2019-01-03T10:03:28.587Z,2.27
2019-01-03T10:04:28.574Z,2.27
2019-01-03T10:05:28.566Z,2.28
2019-01-03T10:06:28.554Z,2.45
2019-01-03T10:07:28.640Z,2.35
2019-01-03T10:08:28.530Z,2.39
2019-01-03T10:09:28.572Z,2.39
2019-01-03T10:10:28.512Z,2.39
2019-01-03T10:11:28.498Z,2.39
2019-01-03T10:12:28.490Z,2.38
2019-01-03T10:13:28.501Z,2.45
2019-01-03T10:14:28.469Z,2.39
2019-01-03T10:15:28.456Z,2.39
2019-01-03T10:16:28.450Z,2.34
2019-01-03T10:17:28.436Z,2.46
2019-01-03T10:18:28.440Z,2.53
2019-01-03T10:19:28.413Z,2.48
2019-01-03T10:20:28.402Z,2.41
2019-01-03T10:21:28.391Z,2.53
2019-01-03T10:22:28.380Z,2.63
2019-01-03T10:23:28.385Z,2.61
2019-01-03T10:24:28.361Z,2.56
2019-01-03T10:25:28.350Z,2.48
2019-01-03T10:26:28.340Z,2.61
2019-01-03T10:27:28.328Z,2.52
2019-01-03T10:28:28.332Z,2.63
2019-01-03T10:29:28.306Z,2.63
2019-01-03T10:30:28.300Z,2.64
2019-01-03T10:31:28.286Z,2.74
2019-01-03T10:32:28.274Z,2.66
2019-01-03T10:33:28.275Z,2.77
2019-01-03T10:34:28.278Z,2.82
2019-01-03T10:35:28.239Z,2.74
2019-01-03T10:36:28.230Z,2.81
2019-01-03T10:37:28.222Z,2.77
2019-01-03T10:38:28.208Z,2.90
2019-01-03T10:39:28.200Z,2.92
2019-01-03T10:40:28.204Z,2.93
2019-01-03T10:41:28.175Z,2.90
2019-01-03T10:42:28.165Z,2.97
2019-01-03T10:43:28.157Z,2.93
2019-01-03T10:44:28.164Z,2.99
2019-01-03T10:45:28.135Z,2.97
2019-01-03T10:46:28.126Z,2.97
2019-01-03T10:47:28.113Z,2.97
2019-01-03T10:48:28.105Z,2.96
2019-01-03T10:49:28.088Z,2.97
2019-01-03T10:50:28.097Z,3.03
2019-01-03T10:51:28.081Z,2.97
2019-01-03T10:52:28.059Z,2.93
2019-01-03T10:53:28.049Z,2.97
2019-01-03T10:54:28.036Z,2.97
2019-01-03T10:55:28.024Z,2.96
2019-01-03T10:56:28.039Z,3.02
2019-01-03T10:57:28.007Z,3.05
2019-01-03T10:58:27.992Z,3.02
2019-01-03T10:59:27.986Z,3.00
2019-01-03T11:00:27.975Z,3.00
2019-01-03T11:01:27.962Z,3.00
2019-01-03T11:02:27.971Z,3.02
2019-01-03T11:03:27.937Z,3.03
2019-01-03T11:04:27.931Z,3.02
2019-01-03T11:05:27.920Z,3.02
2019-01-03T11:06:27.911Z,3.10
2019-01-03T11:07:27.898Z,3.00
2019-01-03T11:08:27.898Z,3.06
2019-01-03T11:09:27.884Z,3.11
2019-01-03T11:10:27.863Z,3.06
2019-01-03T11:11:27.878Z,3.13
2019-01-03T11:12:27.841Z,3.10
2019-01-03T11:13:28.731Z,3.13
2019-01-03T11:14:27.823Z,3.10
2019-01-03T11:15:27.810Z,3.08
2019-01-03T11:16:27.800Z,3.14
2019-01-03T11:17:27.807Z,3.14
2019-01-03T11:18:27.799Z,3.17
2019-01-03T11:19:27.768Z,3.18
2019-01-03T11:20:27.759Z,3.14
2019-01-03T11:21:27.746Z,3.15
2019-01-03T11:22:27.737Z,3.23
2019-01-03T11:23:27.728Z,3.24
2019-01-03T11:24:27.728Z,3.24
2019-01-03T11:25:27.703Z,3.23
2019-01-03T11:26:27.693Z,3.21
2019-01-03T11:27:27.682Z,3.29
2019-01-03T11:28:27.670Z,3.20
2019-01-03T11:29:27.677Z,3.20
2019-01-03T11:30:27.663Z,3.24
2019-01-03T11:31:27.640Z,3.28
2019-01-03T11:32:27.631Z,3.14
2019-01-03T11:33:27.619Z,3.26
2019-01-03T11:34:27.607Z,3.23
2019-01-03T11:35:27.614Z,3.21
2019-01-03T11:36:27.586Z,3.17
2019-01-03T11:37:27.578Z,3.20
2019-01-03T11:38:27.566Z,3.13
2019-01-03T11:39:27.570Z,3.20
2019-01-03T11:40:27.542Z,3.20
2019-01-03T11:41:27.534Z,3.17
2019-01-03T11:42:27.521Z,3.18
2019-01-03T11:43:27.523Z,3.23
2019-01-03T11:44:27.513Z,3.20
2019-01-03T11:45:27.517Z,3.13
2019-01-03T11:46:27.476Z,3.15
2019-01-03T11:47:27.467Z,3.14
2019-01-03T11:48:27.458Z,3.15
2019-01-03T11:49:27.446Z,3.17
2019-01-03T11:50:27.432Z,3.17
2019-01-03T11:51:27.568Z,3.17
2019-01-03T11:52:27.416Z,3.13
2019-01-03T11:53:27.428Z,3.15
2019-01-03T11:54:27.390Z,3.20
2019-01-03T11:55:27.379Z,3.17
2019-01-03T11:56:27.373Z,3.14
2019-01-03T11:57:27.363Z,3.17
2019-01-03T11:58:27.351Z,3.14
2019-01-03T11:59:27.354Z,3.15
2019-01-03T12:00:27.326Z,3.17
2019-01-03T12:01:27.318Z,3.14
2019-01-03T12:02:27.307Z,3.15
2019-01-03T12:03:27.299Z,3.20
2019-01-03T12:04:27.299Z,3.20
2019-01-03T12:05:27.275Z,3.14
2019-01-03T12:06:27.261Z,3.17
2019-01-03T12:07:27.251Z,3.28
2019-01-03T12:08:27.284Z,3.33
2019-01-03T12:09:27.229Z,3.28
2019-01-03T12:10:27.221Z,3.35
2019-01-03T12:11:27.208Z,3.33
2019-01-03T12:12:27.196Z,3.40
2019-01-03T12:13:27.185Z,3.33
2019-01-03T12:14:27.190Z,3.40
2019-01-03T12:15:27.166Z,3.42
2019-01-03T12:16:27.157Z,3.39
2019-01-03T12:17:27.143Z,3.36
2019-01-03T12:18:27.149Z,3.40
2019-01-03T12:19:27.138Z,3.35
2019-01-03T12:20:27.113Z,3.43
2019-01-03T12:21:27.102Z,3.36
2019-01-03T12:22:27.089Z,3.33
2019-01-03T12:23:27.078Z,3.32
2019-01-03T12:24:30.605Z,3.48
2019-01-03T12:25:27.072Z,3.39
2019-01-03T12:26:27.049Z,3.36
2019-01-03T12:27:27.034Z,3.36
2019-01-03T12:28:27.025Z,3.45
2019-01-03T12:29:27.033Z,3.39
2019-01-03T12:30:27.005Z,3.47
2019-01-03T12:31:26.993Z,3.31
2019-01-03T12:32:26.981Z,3.33
2019-01-03T12:33:26.989Z,3.33
2019-01-03T12:34:26.960Z,3.36
2019-01-03T12:35:26.966Z,3.42
2019-01-03T12:36:26.940Z,3.50
2019-01-03T12:37:26.928Z,3.52
2019-01-03T12:38:26.919Z,3.40
2019-01-03T12:39:26.907Z,3.50
2019-01-03T12:40:26.920Z,3.40
2019-01-03T12:41:26.884Z,3.51
2019-01-03T12:42:26.877Z,3.43
2019-01-03T12:43:26.862Z,3.43
2019-01-03T12:44:26.851Z,3.47
2019-01-03T12:45:26.857Z,3.43
2019-01-03T12:46:26.829Z,3.47
2019-01-03T12:47:26.818Z,3.58
2019-01-03T12:48:26.811Z,3.48
2019-01-03T12:49:26.796Z,3.60
2019-01-03T12:50:26.806Z,3.54
2019-01-03T12:51:26.779Z,3.57
2019-01-03T12:52:26.764Z,3.50
2019-01-03T12:53:26.753Z,3.60
2019-01-03T12:54:26.747Z,3.54
2019-01-03T12:55:26.755Z,3.54
2019-01-03T12:56:26.738Z,3.51
2019-01-03T12:57:26.720Z,3.58
2019-01-03T12:58:26.699Z,3.57
2019-01-03T12:59:26.693Z,3.58
2019-01-03T13:00:26.694Z,3.65
2019-01-03T13:01:26.681Z,3.62
2019-01-03T13:02:26.656Z,3.65
2019-01-03T13:03:26.652Z,3.54
2019-01-03T13:04:26.641Z,3.61
2019-01-03T13:05:26.628Z,3.66
2019-01-03T13:06:26.643Z,3.65
2019-01-03T13:07:26.609Z,3.54
2019-01-03T13:08:26.594Z,3.57
2019-01-03T13:09:26.580Z,3.62
2019-01-03T13:10:26.570Z,3.65